Time;durP1;ratioP1;P1;durP2;ratioP2;P2;SDS_P1;SDS_P2;PMS_P1;PMS_P2;Temp;Humidity;BMP_temperature;BMP_pressure;BME280_temperature;BME280_humidity;BME280_pressure;Samples;Min_cycle;Max_cycle;Signal;HPM_P1;HPM_P2
2024/01/10 05:00:28;;;;;;;3.17;1.87;;;;;;;;;;20970469;22;20232;-87
2024/01/10 05:10:29;;;;;;;1.83;1.53;;;;;;;;;;21042737;27;20619;-84
2024/01/10 05:20:31;;;;;;;2.67;2.00;;;;;;;;;;20273413;28;1184680;-86
2024/01/10 05:30:33;;;;;;;2.37;2.07;;;;;;;;;;18995140;30;20243;-85
2024/01/10 05:40:35;;;;;;;1.63;1.47;;;;;;;;;;18993662;31;20626;-85
2024/01/10 05:50:39;;;;;;;3.30;2.10;;;;;;;;;;18993218;31;20313;-87
2024/01/10 06:00:40;;;;;;;3.37;2.30;;;;;;;;;;19000360;31;20232;-87
2024/01/10 06:10:42;;;;;;;1.30;1.13;;;;;;;;;;19029737;31;20263;-87
2024/01/10 06:20:44;;;;;;;2.77;1.77;;;;;;;;;;19199678;29;20230;-85
2024/01/10 06:30:46;;;;;;;3.70;2.03;;;;;;;;;;19896112;29;20295;-86
2024/01/10 06:40:48;;;;;;;2.63;2.07;;;;;;;;;;19923378;29;20222;-85
2024/01/10 06:50:49;;;;;;;1.73;1.47;;;;;;;;;;19966753;29;20248;-84
2024/01/10 07:00:51;;;;;;;1.20;1.03;;;;;;;;;;19930352;29;20295;-83
2024/01/10 07:22:24;;;;;;;2.70;1.77;;;;;;;;;;19963756;29;20293;-87
2024/01/10 07:42:41;;;;;;;3.37;2.27;;;;;;;;;;21072197;27;20577;-72
2024/01/10 07:52:44;;;;;;;8.60;2.43;;;-4.00;99.90;;;;;;20938899;28;20727;-72
2024/01/10 08:02:46;;;;;;;4.37;2.77;;;;;;;;;;20932247;28;20209;-71
2024/01/10 08:12:47;;;;;;;2.10;1.60;;;;;;;;;;20939846;28;20290;-73
2024/01/10 08:22:50;;;;;;;1.77;1.67;;;;;;;;;;20924285;28;20240;-73
2024/01/10 08:32:52;;;;;;;3.67;2.70;;;;;;;;;;20888506;28;20206;-73
2024/01/10 08:42:54;;;;;;;3.17;2.03;;;;;;;;;;20948135;28;20209;-73
2024/01/10 08:52:56;;;;;;;4.50;2.70;;;;;;;;;;20861910;28;20206;-73
2024/01/10 09:02:58;;;;;;;2.97;2.30;;;;;;;;;;20882265;28;20213;-73
2024/01/10 09:13:00;;;;;;;2.97;2.20;;;;;;;;;;20879690;28;20263;-74
2024/01/10 09:23:02;;;;;;;3.83;2.40;;;;;;;;;;20852450;28;20244;-74
2024/01/10 09:33:04;;;;;;;3.53;2.20;;;;;;;;;;20869064;28;20877;-74
2024/01/10 09:43:07;;;;;;;2.93;2.60;;;;;;;;;;20845837;28;20218;-74
2024/01/10 09:53:14;;;;;;;1.70;1.50;;;;;;;;;;20869000;28;20244;-75
2024/01/10 10:03:18;;;;;;;2.33;1.80;;;;;;;;;;20873742;28;20206;-75
2024/01/10 10:13:27;;;;;;;3.77;2.17;;;-2.00;99.90;;;;;;20855585;28;20798;-75
2024/01/10 10:23:29;;;;;;;3.57;2.10;;;;;;;;;;20822166;28;20677;-75
2024/01/10 10:33:33;;;;;;;3.37;2.17;;;;;;;;;;20871855;28;20247;-76
2024/01/10 10:43:36;;;;;;;2.43;1.70;;;;;;;;;;20852183;28;20280;-75
2024/01/10 10:53:40;;;;;;;3.50;2.80;;;;;;;;;;20853814;28;20221;-75
2024/01/10 11:03:44;;;;;;;4.20;2.60;;;-1.50;99.90;;;;;;20827885;28;20209;-75
2024/01/10 11:13:49;;;;;;;4.00;2.37;;;;;;;;;;20852050;28;20226;-76
2024/01/10 11:23:59;;;;;;;3.03;2.00;;;-1.00;99.90;;;;;;20862048;28;20205;-74
2024/01/10 11:34:03;;;;;;;2.10;1.90;;;;;;;;;;20867120;28;20252;-74
2024/01/10 11:44:17;;;;;;;4.27;2.60;;;-1.20;99.90;;;;;;20844546;28;20225;-74
2024/01/10 11:54:40;;;;;;;5.10;2.40;;;-1.10;99.90;;;;;;20845868;28;20225;-73
2024/01/10 12:04:42;;;;;;;3.37;2.23;;;;;;;;;;20838426;28;20209;-73
2024/01/10 12:14:44;;;;;;;3.97;2.33;;;;;;;;;;20876242;28;20689;-73
2024/01/10 12:24:49;;;;;;;4.30;2.40;;;;;;;;;;20873998;28;20214;-74
2024/01/10 12:34:55;;;;;;;4.33;2.57;;;;;;;;;;20882096;28;20962;-74
2024/01/10 12:44:57;;;;;;;2.70;2.03;;;;;;;;;;20866572;28;20252;-72
2024/01/10 12:54:59;;;;;;;2.73;2.20;;;;;;;;;;20897102;28;20238;-72
2024/01/10 13:05:01;;;;;;;4.57;2.20;;;;;;;;;;20853461;28;20210;-72
2024/01/10 13:15:04;;;;;;;2.53;2.13;;;;;;;;;;20885428;28;20635;-72
2024/01/10 13:25:07;;;;;;;4.93;2.33;;;-0.70;99.90;;;;;;20891543;28;20238;-72
2024/01/10 13:35:09;;;;;;;3.30;2.20;;;;;;;;;;20892280;28;20242;-71
2024/01/10 13:45:11;;;;;;;3.03;2.23;;;;;;;;;;20853695;28;20213;-71
2024/01/10 13:55:13;;;;;;;3.07;2.23;;;;;;;;;;20866065;28;20268;-71
2024/01/10 14:05:15;;;;;;;3.40;2.30;;;;;;;;;;20851414;28;20276;-71
2024/01/10 14:15:17;;;;;;;4.87;2.43;;;;;;;;;;20882044;28;20620;-70
2024/01/10 14:25:20;;;;;;;5.33;2.60;;;;;;;;;;20850653;28;20267;-71
2024/01/10 14:35:22;;;;;;;3.97;2.50;;;;;;;;;;20850925;28;20221;-72
2024/01/10 14:45:24;;;;;;;2.60;1.63;;;;;;;;;;20871971;28;20276;-71
2024/01/10 14:55:28;;;;;;;2.43;1.47;;;;;;;;;;20861921;28;20595;-72
2024/01/10 15:05:30;;;;;;;2.63;1.87;;;;;;;;;;20869601;28;20946;-71
2024/01/10 15:15:32;;;;;;;4.13;2.50;;;;;;;;;;20867261;28;20221;-72
2024/01/10 15:25:34;;;;;;;3.33;2.30;;;;;;;;;;20849031;28;20210;-71
2024/01/10 15:35:36;;;;;;;2.87;1.60;;;;;;;;;;20862142;28;20271;-72
2024/01/10 15:45:38;;;;;;;3.57;2.33;;;;;;;;;;20847948;28;20279;-72
2024/01/10 15:55:39;;;;;;;3.90;2.50;;;;;;;;;;20860728;28;20270;-72
2024/01/10 16:05:41;;;;;;;4.00;1.90;;;;;;;;;;20867750;28;20697;-72
2024/01/10 16:15:44;;;;;;;3.77;2.37;;;-1.40;99.90;;;;;;20863979;28;20283;-72
2024/01/10 16:25:46;;;;;;;3.50;2.30;;;-2.00;99.90;;;;;;20847763;28;20214;-72
2024/01/10 16:35:47;;;;;;;7.33;2.50;;;;;;;;;;20859457;28;20213;-73
2024/01/10 16:45:49;;;;;;;3.63;2.53;;;;;;;;;;20861641;28;20214;-73
2024/01/10 16:55:51;;;;;;;3.60;2.37;;;;;;;;;;20874072;28;20225;-74
2024/01/10 17:05:53;;;;;;;13.93;4.03;;;;;;;;;;20847681;28;20553;-74
2024/01/10 17:15:55;;;;;;;4.80;2.60;;;;;;;;;;20845946;28;20225;-74
2024/01/10 17:25:56;;;;;;;3.67;2.77;;;;;;;;;;20858558;28;20218;-74
2024/01/10 17:35:59;;;;;;;2.60;2.10;;;;;;;;;;20875220;28;20308;-74
2024/01/10 17:46:02;;;;;;;6.03;4.70;;;;;;;;;;20855614;28;20225;-74
2024/01/10 17:56:03;;;;;;;3.60;3.00;;;;;;;;;;20848295;28;20225;-74
2024/01/10 18:06:06;;;;;;;3.10;2.13;;;;;;;;;;20839483;22;20600;-84
2024/01/10 18:16:08;;;;;;;3.33;2.33;;;;;;;;;;20748229;28;20227;-84
2024/01/10 18:26:09;;;;;;;7.10;2.67;;;;;;;;;;20706350;28;20234;-86
2024/01/10 18:36:11;;;;;;;6.53;2.67;;;;;;;;;;20702733;28;20782;-84
2024/01/10 18:46:13;;;;;;;4.43;2.87;;;;;;;;;;20706556;28;20227;-85
2024/01/10 18:56:15;;;;;;;4.93;3.20;;;;;;;;;;20688837;28;20273;-85
2024/01/10 19:06:16;;;;;;;5.10;2.93;;;;;;;;;;20716604;28;20230;-85
2024/01/10 19:16:18;;;;;;;3.00;2.43;;;;;;;;;;20722049;28;20219;-83
2024/01/10 19:26:24;;;;;;;3.47;2.57;;;-2.10;99.90;;;;;;20753651;28;20218;-84
2024/01/10 19:36:26;;;;;;;3.63;2.90;;;;;;;;;;20734413;28;20280;-84
2024/01/10 19:46:27;;;;;;;5.17;3.50;;;;;;;;;;20788914;28;20196;-84
2024/01/10 19:56:31;;;;;;;3.43;2.30;;;;;;;;;;20734303;28;20277;-85
2024/01/10 20:06:33;;;;;;;3.37;2.73;;;;;;;;;;20736640;28;20243;-85
2024/01/10 20:16:35;;;;;;;4.03;2.50;;;;;;;;;;20730477;28;20258;-83
2024/01/10 20:26:37;;;;;;;3.03;2.10;;;;;;;;;;20720162;28;20252;-84
2024/01/10 20:36:39;;;;;;;3.83;2.80;;;;;;;;;;20724271;28;20764;-84
2024/01/10 20:46:41;;;;;;;2.83;2.20;;;;;;;;;;20753448;28;20535;-83
2024/01/10 20:56:43;;;;;;;3.30;2.10;;;;;;;;;;20767381;28;20361;-86
2024/01/10 21:06:45;;;;;;;4.57;3.37;;;;;;;;;;20728763;28;20253;-85
2024/01/10 21:16:49;;;;;;;4.33;3.20;;;;;;;;;;20734867;28;20250;-84
2024/01/10 21:26:51;;;;;;;3.93;2.97;;;;;;;;;;20788114;28;20865;-84
2024/01/10 21:36:54;;;;;;;4.87;3.00;;;;;;;;;;20737430;28;20231;-84
2024/01/10 21:46:55;;;;;;;2.97;2.70;;;;;;;;;;20727304;28;20219;-84
2024/01/10 21:56:57;;;;;;;7.60;3.20;;;;;;;;;;20720323;28;20273;-84
2024/01/10 22:06:59;;;;;;;5.77;3.40;;;;;;;;;;20747229;28;20231;-84
2024/01/10 22:17:01;;;;;;;3.93;2.70;;;;;;;;;;20734868;28;20219;-84
2024/01/10 22:27:02;;;;;;;4.03;3.30;;;;;;;;;;20742661;28;20223;-84
2024/01/10 22:37:04;;;;;;;3.27;2.97;;;;;;;;;;20732883;28;20223;-85
2024/01/10 22:47:07;;;;;;;4.53;3.13;;;;;;;;;;20744687;28;20234;-86
2024/01/10 22:57:09;;;;;;;3.87;3.13;;;;;;;;;;20750107;28;20300;-83
2024/01/10 23:07:12;;;;;;;4.13;3.03;;;;;;;;;;20753964;28;20238;-84
2024/01/10 23:17:14;;;;;;;9.63;5.73;;;;;;;;;;20754448;28;20222;-85
2024/01/10 23:27:16;;;;;;;4.60;2.93;;;;;;;;;;20730774;28;20219;-83
2024/01/10 23:37:18;;;;;;;3.40;2.80;;;;;;;;;;20767445;28;20273;-85
2024/01/10 23:47:20;;;;;;;4.50;3.13;;;;;;;;;;20761265;28;20245;-83
2024/01/10 23:57:21;;;;;;;3.60;2.50;;;;;;;;;;20741751;28;20219;-84
